createdAt,value
2022-12-23T00:01:37.728Z,94.58
2022-12-23T00:04:05.118Z,94.51
2022-12-23T00:06:32.609Z,93.99
2022-12-23T00:09:00.470Z,94.44
2022-12-23T00:11:28.804Z,93.67
2022-12-23T00:14:21.074Z,93.85
2022-12-23T00:16:51.162Z,94.20
2022-12-23T00:19:18.514Z,94.42
2022-12-23T00:21:45.512Z,93.90
2022-12-23T00:24:12.492Z,93.80
2022-12-23T00:26:39.351Z,93.80
2022-12-23T00:29:07.501Z,93.96
2022-12-23T00:31:34.589Z,93.21
2022-12-23T00:34:01.610Z,93.98
2022-12-23T00:36:30.826Z,93.55
2022-12-23T00:39:18.522Z,93.46
2022-12-23T00:42:04.673Z,93.61
2022-12-23T00:44:32.607Z,94.02
2022-12-23T00:46:59.544Z,93.97
2022-12-23T00:49:44.724Z,94.09
2022-12-23T00:52:15.865Z,93.91
2022-12-23T00:54:43.217Z,93.50
2022-12-23T00:57:10.968Z,93.30
2022-12-23T00:59:38.521Z,93.45
2022-12-23T01:02:24.391Z,94.15
2022-12-23T01:05:09.994Z,93.81
2022-12-23T01:07:37.684Z,94.06
2022-12-23T01:10:04.965Z,94.06
2022-12-23T01:12:32.386Z,93.64
2022-12-23T01:14:59.341Z,93.36
2022-12-23T01:17:26.402Z,93.57
2022-12-23T01:19:53.493Z,93.04
2022-12-23T01:22:20.385Z,92.91
2022-12-23T01:24:47.494Z,92.98
2022-12-23T01:27:14.393Z,93.43
2022-12-23T01:29:41.465Z,93.79
2022-12-23T01:32:08.515Z,93.53
2022-12-23T01:34:37.351Z,93.80
2022-12-23T01:37:05.132Z,93.77
2022-12-23T01:39:32.627Z,93.94
2022-12-23T01:42:18.441Z,94.08
2022-12-23T01:44:57.106Z,93.77
2022-12-23T01:47:28.341Z,94.12
2022-12-23T01:49:59.481Z,94.27
2022-12-23T01:52:27.499Z,93.78
2022-12-23T01:54:55.572Z,94.19
2022-12-23T01:57:22.747Z,93.70
2022-12-23T02:00:08.726Z,93.90
2022-12-23T02:02:55.575Z,93.93
2022-12-23T02:05:23.640Z,93.73
2022-12-23T02:08:11.278Z,93.85
2022-12-23T02:10:49.864Z,93.29
2022-12-23T02:13:32.193Z,93.41
2022-12-23T02:16:17.966Z,93.50
2022-12-23T02:19:01.141Z,93.78
2022-12-23T02:21:46.201Z,94.03
2022-12-23T02:24:22.055Z,93.92
2022-12-23T02:27:12.524Z,93.75
2022-12-23T02:30:00.791Z,93.87
2022-12-23T02:32:43.041Z,93.73
2022-12-23T02:35:25.780Z,93.65
2022-12-23T02:38:00.540Z,93.93
2022-12-23T02:40:44.842Z,93.97
2022-12-23T02:43:40.461Z,93.42
2022-12-23T02:46:13.105Z,93.39
2022-12-23T02:48:59.158Z,93.97
2022-12-23T02:51:30.511Z,94.21
2022-12-23T02:54:01.036Z,93.56
2022-12-23T02:56:31.191Z,93.35
2022-12-23T02:59:11.800Z,93.56
2022-12-23T03:01:39.417Z,93.80
2022-12-23T03:04:06.891Z,93.87
2022-12-23T03:06:39.567Z,93.55
2022-12-23T03:09:07.604Z,93.86
2022-12-23T03:11:56.070Z,93.11
2022-12-23T03:14:47.964Z,93.43
2022-12-23T03:17:36.199Z,93.82
2022-12-23T03:20:15.216Z,93.13
2022-12-23T03:22:55.221Z,92.72
2022-12-23T03:25:29.000Z,93.02
2022-12-23T03:28:02.083Z,93.45
2022-12-23T03:30:30.094Z,93.18
2022-12-23T03:33:01.966Z,94.10
2022-12-23T03:35:32.753Z,93.31
2022-12-23T03:38:00.971Z,93.11
2022-12-23T03:40:32.548Z,93.64
2022-12-23T03:43:05.573Z,92.66
2022-12-23T03:45:39.166Z,93.01
2022-12-23T03:48:11.214Z,93.28
2022-12-23T03:50:39.269Z,93.18
2022-12-23T03:53:14.167Z,92.49
2022-12-23T03:55:48.707Z,93.08
2022-12-23T03:58:28.662Z,92.95
2022-12-23T04:01:17.620Z,93.46
2022-12-23T04:04:07.058Z,92.81
2022-12-23T04:06:39.679Z,92.57
2022-12-23T04:09:06.435Z,92.85
2022-12-23T04:11:34.648Z,92.80
2022-12-23T04:14:01.504Z,92.73
2022-12-23T04:16:29.163Z,92.89
2022-12-23T04:18:56.022Z,92.95
2022-12-23T04:21:22.823Z,92.83
2022-12-23T04:23:49.452Z,92.38
2022-12-23T04:26:16.224Z,93.24
2022-12-23T04:28:42.891Z,93.07
2022-12-23T04:31:09.823Z,93.03
2022-12-23T04:33:36.507Z,92.59
2022-12-23T04:36:03.500Z,93.12
2022-12-23T04:38:30.231Z,93.08
2022-12-23T04:40:57.516Z,92.60
2022-12-23T04:43:24.386Z,93.03
2022-12-23T04:45:51.952Z,92.62
2022-12-23T04:48:18.998Z,93.49
2022-12-23T04:50:45.733Z,93.17
2022-12-23T04:53:12.543Z,92.98
2022-12-23T04:55:39.513Z,92.36
2022-12-23T04:58:06.156Z,93.22
2022-12-23T05:00:39.129Z,93.09
2022-12-23T05:03:06.895Z,93.15
2022-12-23T05:05:33.801Z,93.01
2022-12-23T05:08:05.127Z,93.32
2022-12-23T05:10:31.946Z,93.08
2022-12-23T05:12:58.833Z,92.55
2022-12-23T05:15:25.614Z,92.71
2022-12-23T05:17:52.314Z,92.65
2022-12-23T05:20:19.039Z,92.64
2022-12-23T05:22:45.716Z,93.10
2022-12-23T05:25:12.495Z,92.80
2022-12-23T05:27:39.254Z,92.80
2022-12-23T05:30:07.362Z,92.64
2022-12-23T05:32:34.113Z,92.52
2022-12-23T05:35:00.893Z,93.62
2022-12-23T05:37:27.613Z,92.67
2022-12-23T05:39:54.415Z,93.37
2022-12-23T05:42:21.116Z,93.56
2022-12-23T05:44:47.940Z,92.48
2022-12-23T05:47:14.959Z,92.82
2022-12-23T05:49:41.748Z,92.85
2022-12-23T05:52:08.526Z,92.96
2022-12-23T05:54:35.455Z,92.53
2022-12-23T05:57:02.192Z,92.62
2022-12-23T05:59:31.356Z,93.45
2022-12-23T06:01:58.968Z,92.85
2022-12-23T06:04:25.988Z,93.55
2022-12-23T06:06:52.933Z,92.55
2022-12-23T06:09:19.627Z,93.43
2022-12-23T06:11:46.414Z,93.68
2022-12-23T06:14:13.140Z,93.44
2022-12-23T06:16:40.047Z,93.17
2022-12-23T06:19:07.021Z,93.47
2022-12-23T06:21:33.820Z,92.96
2022-12-23T06:24:00.627Z,92.94
2022-12-23T06:26:27.468Z,92.92
2022-12-23T06:28:54.402Z,93.01
2022-12-23T06:31:21.248Z,92.97
2022-12-23T06:33:47.917Z,92.91
2022-12-23T06:36:14.766Z,92.79
2022-12-23T06:38:41.472Z,92.75
2022-12-23T06:41:08.177Z,93.06
2022-12-23T06:43:35.155Z,92.57
2022-12-23T06:46:01.929Z,92.94
2022-12-23T06:48:28.803Z,92.98
2022-12-23T06:50:55.717Z,92.54
2022-12-23T06:53:22.540Z,93.06
2022-12-23T06:55:49.350Z,92.92
2022-12-23T06:58:16.191Z,92.80
2022-12-23T07:00:43.126Z,92.68
2022-12-23T07:03:09.966Z,92.96
2022-12-23T07:05:37.861Z,93.23
2022-12-23T07:08:05.320Z,93.10
2022-12-23T07:10:32.016Z,92.92
2022-12-23T07:12:58.801Z,92.57
2022-12-23T07:15:25.459Z,93.45
2022-12-23T07:17:52.332Z,92.76
2022-12-23T07:20:19.051Z,93.38
2022-12-23T07:22:46.378Z,93.07
2022-12-23T07:25:13.607Z,93.39
2022-12-23T07:27:40.646Z,93.35
2022-12-23T07:30:08.318Z,92.95
2022-12-23T07:32:35.094Z,93.20
2022-12-23T07:35:02.111Z,93.45
2022-12-23T07:37:28.891Z,92.56
2022-12-23T07:39:56.280Z,92.89
2022-12-23T07:45:11.185Z,92.96
2022-12-23T07:47:38.398Z,92.55
2022-12-23T07:50:06.419Z,92.12
2022-12-23T07:52:33.547Z,92.38
2022-12-23T07:55:00.770Z,92.03
2022-12-23T07:57:29.496Z,92.65
2022-12-23T07:59:57.139Z,92.86
2022-12-23T08:02:25.720Z,92.57
2022-12-23T08:04:53.484Z,92.25
2022-12-23T08:07:20.534Z,92.17
2022-12-23T08:09:47.861Z,92.74
2022-12-23T08:12:14.910Z,92.20
2022-12-23T08:14:42.388Z,92.61
2022-12-23T08:17:09.560Z,92.64
2022-12-23T08:19:36.892Z,92.85
2022-12-23T08:22:04.015Z,92.93
2022-12-23T08:24:31.315Z,92.68
2022-12-23T08:26:58.630Z,92.22
2022-12-23T08:29:28.887Z,92.12
2022-12-23T08:31:58.472Z,92.21
2022-12-23T08:34:25.923Z,92.45
2022-12-23T08:36:53.128Z,92.24
2022-12-23T08:39:20.278Z,92.52
2022-12-23T08:41:48.566Z,92.69
2022-12-23T08:44:17.149Z,92.41
2022-12-23T08:46:44.763Z,92.51
2022-12-23T08:49:13.124Z,92.39
2022-12-23T08:51:40.481Z,93.04
2022-12-23T08:54:07.953Z,92.66
2022-12-23T08:56:37.255Z,92.91
2022-12-23T08:59:04.706Z,92.99
2022-12-23T09:01:34.074Z,93.04
2022-12-23T09:04:05.246Z,93.06
2022-12-23T09:06:39.333Z,92.76
2022-12-23T09:09:07.422Z,93.49
2022-12-23T09:11:35.431Z,92.95
2022-12-23T09:14:04.192Z,92.77
2022-12-23T09:16:31.572Z,92.67
2022-12-23T09:18:59.247Z,93.39
2022-12-23T09:21:26.373Z,93.56
2022-12-23T09:23:53.749Z,93.58
2022-12-23T09:26:23.749Z,93.39
2022-12-23T09:28:51.013Z,93.43
2022-12-23T09:31:19.059Z,93.64
2022-12-23T09:33:50.816Z,93.79
2022-12-23T09:36:18.473Z,93.28
2022-12-23T09:38:46.215Z,93.58
2022-12-23T09:41:34.855Z,93.17
2022-12-23T09:44:10.681Z,93.28
2022-12-23T09:46:38.814Z,93.13
2022-12-23T09:49:14.519Z,93.12
2022-12-23T09:51:41.696Z,92.95
2022-12-23T09:54:17.578Z,93.17
2022-12-23T09:56:52.691Z,92.91
2022-12-23T09:59:22.801Z,93.11
2022-12-23T10:02:00.991Z,93.15
2022-12-23T10:04:36.226Z,92.66
2022-12-23T10:07:06.168Z,92.88
2022-12-23T10:09:37.625Z,92.81
2022-12-23T10:12:31.638Z,92.74
2022-12-23T10:15:03.337Z,92.75
2022-12-23T10:17:39.277Z,92.65
2022-12-23T10:20:08.773Z,92.92
2022-12-23T10:22:40.431Z,93.07
2022-12-23T10:25:15.692Z,92.41
2022-12-23T10:27:45.001Z,92.28
2022-12-23T10:30:42.559Z,92.09
2022-12-23T10:33:23.285Z,92.74
2022-12-23T10:36:02.695Z,93.05
2022-12-23T10:38:59.410Z,93.28
2022-12-23T10:41:45.389Z,93.30
2022-12-23T10:44:24.416Z,93.32
2022-12-23T10:47:15.142Z,92.48
2022-12-23T10:50:00.543Z,92.67
2022-12-23T10:52:30.071Z,93.07
2022-12-23T10:54:57.375Z,93.05
2022-12-23T10:57:26.231Z,93.16
2022-12-23T10:59:53.396Z,93.57
2022-12-23T11:02:32.863Z,93.16
2022-12-23T11:05:00.099Z,93.81
2022-12-23T11:07:45.676Z,93.93
2022-12-23T11:10:17.606Z,93.85
2022-12-23T11:12:50.927Z,93.74
2022-12-23T11:15:27.081Z,93.63
2022-12-23T11:18:12.339Z,93.68
2022-12-23T11:20:42.275Z,94.22
2022-12-23T11:23:23.844Z,93.81
2022-12-23T11:26:01.363Z,93.84
2022-12-23T11:28:28.943Z,94.12
2022-12-23T11:31:12.406Z,94.35
2022-12-23T11:33:56.234Z,94.46
2022-12-23T11:36:25.498Z,93.75
2022-12-23T11:39:10.438Z,94.08
2022-12-23T11:41:48.562Z,93.55
2022-12-23T11:44:18.556Z,93.56
2022-12-23T11:46:45.643Z,94.01
2022-12-23T11:49:27.676Z,93.65
2022-12-23T11:52:15.314Z,93.96
2022-12-23T11:54:54.416Z,93.92
2022-12-23T11:57:38.653Z,93.59
2022-12-23T12:00:08.689Z,93.74
2022-12-23T12:02:40.043Z,93.74
2022-12-23T12:05:17.275Z,93.14
2022-12-23T12:07:45.873Z,93.63
2022-12-23T12:10:27.164Z,93.78
2022-12-23T12:12:57.779Z,93.35
2022-12-23T12:15:42.681Z,93.69
2022-12-23T12:18:15.464Z,93.61
2022-12-23T12:20:46.348Z,93.36
2022-12-23T12:23:19.033Z,93.88
2022-12-23T12:25:59.736Z,93.36
2022-12-23T12:28:43.751Z,92.84
2022-12-23T12:31:33.152Z,93.05
2022-12-23T12:34:42.100Z,93.00
2022-12-23T12:37:34.738Z,93.22
2022-12-23T12:40:15.627Z,93.34
2022-12-23T12:42:45.670Z,93.15
2022-12-23T12:45:23.145Z,93.06
2022-12-23T12:48:24.515Z,93.36
2022-12-23T12:51:26.837Z,93.31
2022-12-23T12:54:16.720Z,93.25
2022-12-23T12:56:53.690Z,93.17
2022-12-23T12:59:23.769Z,93.09
2022-12-23T13:01:59.923Z,92.87
2022-12-23T13:04:35.425Z,93.13
2022-12-23T13:07:16.963Z,93.26
2022-12-23T13:10:01.483Z,93.28
2022-12-23T13:12:43.916Z,93.44
2022-12-23T13:15:13.832Z,93.66
2022-12-23T13:17:50.377Z,92.96
2022-12-23T13:20:25.888Z,93.52
2022-12-23T13:23:02.652Z,93.59
2022-12-23T13:25:51.946Z,93.53
2022-12-23T13:28:44.208Z,93.40
2022-12-23T13:31:18.538Z,93.43
2022-12-23T13:34:08.095Z,93.45
2022-12-23T13:36:53.127Z,93.15
2022-12-23T13:39:53.487Z,92.78
2022-12-23T13:42:38.365Z,93.01
2022-12-23T13:45:12.124Z,93.13
2022-12-23T13:47:45.461Z,93.23
2022-12-23T13:50:18.795Z,93.54
2022-12-23T13:53:05.005Z,93.47
2022-12-23T13:55:36.092Z,92.86
2022-12-23T13:58:03.466Z,92.97
2022-12-23T14:00:32.825Z,92.89
2022-12-23T14:03:03.330Z,93.52
2022-12-23T14:05:37.470Z,93.29
2022-12-23T14:08:06.266Z,93.37
2022-12-23T14:10:34.107Z,92.91
2022-12-23T14:13:09.204Z,93.04
2022-12-23T14:15:51.028Z,93.27
2022-12-23T14:18:43.798Z,92.51
2022-12-23T14:21:41.719Z,93.01
2022-12-23T14:24:21.553Z,93.60
2022-12-23T14:27:03.994Z,93.13
2022-12-23T14:29:36.628Z,93.33
2022-12-23T14:32:04.014Z,93.31
2022-12-23T14:34:34.689Z,92.97
2022-12-23T14:37:20.494Z,93.39
2022-12-23T14:39:48.806Z,92.65
2022-12-23T14:42:34.502Z,92.85
2022-12-23T14:45:30.796Z,93.35
2022-12-23T14:52:59.308Z,92.72
2022-12-23T14:55:30.710Z,92.84
2022-12-23T14:58:05.859Z,92.82
2022-12-23T15:00:45.769Z,92.12
2022-12-23T15:03:12.745Z,93.19
2022-12-23T15:05:40.715Z,93.01
2022-12-23T15:08:24.102Z,93.20
2022-12-23T15:10:50.889Z,92.70
2022-12-23T15:13:18.364Z,92.70
2022-12-23T15:16:00.733Z,92.33
2022-12-23T15:18:28.860Z,92.73
2022-12-23T15:21:11.060Z,92.57
2022-12-23T15:23:50.107Z,92.58
2022-12-23T15:26:17.683Z,91.97
2022-12-23T15:28:44.651Z,92.33
2022-12-23T15:31:39.862Z,92.62
2022-12-23T15:34:16.463Z,93.17
2022-12-23T15:36:45.091Z,93.38
2022-12-23T15:39:21.167Z,93.18
2022-12-23T15:41:48.842Z,92.97
2022-12-23T15:44:21.750Z,93.53
2022-12-23T15:46:50.850Z,93.27
2022-12-23T15:49:20.211Z,93.14
2022-12-23T15:52:08.093Z,92.91
2022-12-23T15:54:44.450Z,93.00
2022-12-23T15:57:18.768Z,92.69
2022-12-23T15:59:45.804Z,93.04
2022-12-23T16:05:25.971Z,91.96
2022-12-23T16:08:12.082Z,91.59
2022-12-23T16:10:39.917Z,92.58
2022-12-23T16:13:21.218Z,93.28
2022-12-23T16:15:48.207Z,93.03
2022-12-23T16:18:33.286Z,93.02
2022-12-23T16:21:04.834Z,92.69
2022-12-23T16:23:34.791Z,92.21
2022-12-23T16:26:02.575Z,91.97
2022-12-23T16:28:40.795Z,93.03
2022-12-23T16:31:10.723Z,93.14
2022-12-23T16:33:50.229Z,93.57
2022-12-23T16:36:20.419Z,93.36
2022-12-23T16:38:48.885Z,93.68
2022-12-23T16:41:15.915Z,93.86
2022-12-23T16:43:51.244Z,93.67
2022-12-23T16:46:20.928Z,93.74
2022-12-23T16:48:50.577Z,93.29
2022-12-23T16:51:20.290Z,93.30
2022-12-23T16:53:51.359Z,92.91
2022-12-23T16:56:21.016Z,92.78
2022-12-23T16:58:48.148Z,93.31
2022-12-23T17:01:18.253Z,93.40
2022-12-23T17:03:45.365Z,93.48
2022-12-23T17:06:16.136Z,94.25
2022-12-23T17:08:43.600Z,94.28
2022-12-23T17:11:20.180Z,93.69
2022-12-23T17:13:47.274Z,93.81
2022-12-23T17:16:19.876Z,94.19
2022-12-23T17:18:50.948Z,93.77
2022-12-23T17:21:23.943Z,94.22
2022-12-23T17:23:52.373Z,93.93
2022-12-23T17:26:19.657Z,93.74
2022-12-23T17:28:46.467Z,93.54
2022-12-23T17:31:15.549Z,93.56
2022-12-23T17:33:44.342Z,93.42
2022-12-23T17:36:12.004Z,94.00
2022-12-23T17:38:39.121Z,93.25
2022-12-23T17:41:05.995Z,94.03
2022-12-23T17:43:33.565Z,94.27
2022-12-23T17:46:00.566Z,93.88
2022-12-23T17:48:31.732Z,94.24
2022-12-23T17:50:59.080Z,94.16
2022-12-23T17:53:26.014Z,93.86
2022-12-23T17:55:52.965Z,93.83
2022-12-23T17:58:20.185Z,94.02
2022-12-23T18:00:47.058Z,93.68
2022-12-23T18:03:23.272Z,93.89
2022-12-23T18:05:53.113Z,93.79
2022-12-23T18:08:24.328Z,93.87
2022-12-23T18:10:51.416Z,93.75
2022-12-23T18:13:19.772Z,94.15
2022-12-23T18:15:48.034Z,94.16
2022-12-23T18:18:28.081Z,94.05
2022-12-23T18:20:58.586Z,93.64
2022-12-23T18:23:28.447Z,93.66
2022-12-23T18:25:56.190Z,93.73
2022-12-23T18:28:23.893Z,93.44
2022-12-23T18:30:52.028Z,93.55
2022-12-23T18:33:19.306Z,93.16
2022-12-23T18:35:48.604Z,92.76
2022-12-23T18:38:16.416Z,92.71
2022-12-23T18:40:44.127Z,92.34
2022-12-23T18:43:24.800Z,92.77
2022-12-23T18:45:53.975Z,92.38
2022-12-23T18:48:21.738Z,92.10
2022-12-23T18:50:48.775Z,92.66
2022-12-23T18:53:23.806Z,92.36
2022-12-23T18:55:51.369Z,92.18
2022-12-23T18:58:18.621Z,92.39
2022-12-23T19:00:46.368Z,92.04
2022-12-23T19:03:30.895Z,92.26
2022-12-23T19:06:06.857Z,92.04
2022-12-23T19:08:36.105Z,92.32
2022-12-23T19:11:19.518Z,91.49
2022-12-23T19:13:46.972Z,92.23
2022-12-23T19:16:18.864Z,92.05
2022-12-23T19:18:46.745Z,92.06
2022-12-23T19:21:14.424Z,92.23
2022-12-23T19:23:41.984Z,91.99
2022-12-23T19:26:10.623Z,92.03
2022-12-23T19:28:38.757Z,92.48
2022-12-23T19:31:09.502Z,92.61
2022-12-23T19:33:38.436Z,92.67
2022-12-23T19:36:20.530Z,93.04
2022-12-23T19:38:47.729Z,92.49
2022-12-23T19:41:14.931Z,92.65
2022-12-23T19:43:44.218Z,92.61
2022-12-23T19:46:12.680Z,92.88
2022-12-23T19:48:40.365Z,92.58
2022-12-23T19:51:12.449Z,92.55
2022-12-23T19:53:41.556Z,92.75
2022-12-23T19:56:12.839Z,92.83
2022-12-23T19:58:41.963Z,92.69
2022-12-23T20:01:13.806Z,92.87
2022-12-23T20:03:42.139Z,92.68
2022-12-23T20:06:15.667Z,93.17
2022-12-23T20:08:44.214Z,93.19
2022-12-23T20:11:15.007Z,92.94
2022-12-23T20:13:42.927Z,93.08
2022-12-23T20:16:10.613Z,93.06
2022-12-23T20:18:38.505Z,93.38
2022-12-23T20:21:07.091Z,93.50
2022-12-23T20:23:35.091Z,93.45
2022-12-23T20:26:02.263Z,93.89
2022-12-23T20:28:29.486Z,93.62
2022-12-23T20:31:12.838Z,93.13
2022-12-23T20:33:40.355Z,93.44
2022-12-23T20:36:07.771Z,93.38
2022-12-23T20:38:37.266Z,93.54
2022-12-23T20:41:04.447Z,93.82
2022-12-23T20:43:34.558Z,93.76
2022-12-23T20:46:02.724Z,93.64
2022-12-23T20:48:34.011Z,93.47
2022-12-23T20:51:15.463Z,93.03
2022-12-23T20:53:43.195Z,92.44
2022-12-23T20:56:15.324Z,91.94
2022-12-23T20:58:54.914Z,91.85
2022-12-23T21:01:26.708Z,91.31
2022-12-23T21:03:54.645Z,91.32
2022-12-23T21:06:22.286Z,91.94
2022-12-23T21:08:49.549Z,91.34
2022-12-23T21:11:17.036Z,91.37
2022-12-23T21:13:47.688Z,91.79
2022-12-23T21:16:15.401Z,91.33
2022-12-23T21:18:44.413Z,91.76
2022-12-23T21:21:11.957Z,91.49
2022-12-23T21:23:40.887Z,91.38
2022-12-23T21:26:19.242Z,91.57
2022-12-23T21:28:47.825Z,91.96
2022-12-23T21:31:16.782Z,91.21
2022-12-23T21:33:44.998Z,91.33
2022-12-23T21:36:19.835Z,91.71
2022-12-23T21:38:48.278Z,92.19
2022-12-23T21:41:17.949Z,92.03
2022-12-23T21:43:45.452Z,92.28
2022-12-23T21:46:14.824Z,92.50
2022-12-23T21:48:42.261Z,92.46
2022-12-23T21:51:17.464Z,91.98
2022-12-23T21:53:46.313Z,92.30
2022-12-23T21:56:18.225Z,92.59
2022-12-23T21:58:45.764Z,92.68
2022-12-23T22:01:15.866Z,92.52
2022-12-23T22:03:43.989Z,92.71
2022-12-23T22:06:14.826Z,92.58
2022-12-23T22:08:42.355Z,93.30
2022-12-23T22:11:14.383Z,93.11
2022-12-23T22:13:41.614Z,92.94
2022-12-23T22:16:14.038Z,92.70
2022-12-23T22:18:41.696Z,92.54
2022-12-23T22:21:11.097Z,92.23
2022-12-23T22:23:38.201Z,91.77
2022-12-23T22:26:06.319Z,91.58
2022-12-23T22:28:35.215Z,90.78
2022-12-23T22:31:12.698Z,90.37
2022-12-23T22:33:39.833Z,90.19
2022-12-23T22:36:07.362Z,90.27
2022-12-23T22:38:34.436Z,89.85
2022-12-23T22:41:01.336Z,89.47
2022-12-23T22:43:28.403Z,89.00
2022-12-23T22:46:00.338Z,88.82
2022-12-23T22:48:29.761Z,88.33
2022-12-23T22:51:09.541Z,88.08
2022-12-23T22:53:37.321Z,88.09
2022-12-23T22:56:05.145Z,88.32
2022-12-23T22:58:33.601Z,87.96
2022-12-23T23:01:01.029Z,87.96
2022-12-23T23:03:28.524Z,87.90
2022-12-23T23:06:09.740Z,87.87
2022-12-23T23:08:36.754Z,87.92
2022-12-23T23:11:04.935Z,88.22
2022-12-23T23:13:34.816Z,88.62
2022-12-23T23:16:03.273Z,88.68
2022-12-23T23:18:30.587Z,87.72
2022-12-23T23:20:57.744Z,88.38
2022-12-23T23:23:24.675Z,88.23
2022-12-23T23:25:51.723Z,88.03
2022-12-23T23:28:19.396Z,89.32
2022-12-23T23:30:46.596Z,88.52
2022-12-23T23:33:14.077Z,88.19
2022-12-23T23:35:40.979Z,87.74
2022-12-23T23:38:08.839Z,87.72
2022-12-23T23:40:35.856Z,87.66
2022-12-23T23:43:03.347Z,87.71
2022-12-23T23:45:30.482Z,87.25
2022-12-23T23:47:57.768Z,88.20
2022-12-23T23:50:24.783Z,87.27
2022-12-23T23:52:52.137Z,87.19
2022-12-23T23:55:18.983Z,87.73
2022-12-23T23:57:46.173Z,86.34
